Time;durP1;ratioP1;P1;durP2;ratioP2;P2;SDS_P1;SDS_P2;PMS_P1;PMS_P2;Temp;Humidity;BMP_temperature;BMP_pressure;BME280_temperature;BME280_humidity;BME280_pressure;Samples;Min_cycle;Max_cycle;Signal;HPM_P1;HPM_P2
2022/07/20 00:00:00;;;;;;;4.72;2.20;;;27.00;59.50;;;;;;5068723;28;20057;-53
2022/07/20 00:02:26;;;;;;;5.60;2.67;;;27.00;59.40;;;;;;5070131;28;20040;-51
2022/07/20 00:04:52;;;;;;;4.95;2.40;;;26.80;59.60;;;;;;5069098;28;20040;-50
2022/07/20 00:07:18;;;;;;;5.05;2.35;;;26.80;59.60;;;;;;5070369;28;20135;-48
2022/07/20 00:12:28;;;;;;;3.92;2.28;;;26.70;59.90;;;;;;5070319;28;20511;-52
2022/07/20 00:14:54;;;;;;;8.25;2.75;;;26.60;59.70;;;;;;5069747;28;20040;-48
2022/07/20 00:17:20;;;;;;;5.22;2.25;;;26.50;60.00;;;;;;5069732;28;20048;-50
2022/07/20 00:19:45;;;;;;;4.85;2.33;;;26.50;60.30;;;;;;5068859;28;20032;-50
2022/07/20 00:22:11;;;;;;;7.13;2.50;;;26.50;60.30;;;;;;5051543;28;20093;-50
2022/07/20 00:24:37;;;;;;;6.45;2.55;;;26.40;60.30;;;;;;5068324;28;20128;-50
2022/07/20 00:27:02;;;;;;;6.28;2.35;;;26.40;60.10;;;;;;5068636;28;20040;-54
2022/07/20 00:29:28;;;;;;;6.53;2.78;;;26.30;60.40;;;;;;5070232;28;20041;-53
2022/07/20 00:31:54;;;;;;;7.53;2.63;;;26.30;60.30;;;;;;5069883;28;20480;-51
2022/07/20 00:34:20;;;;;;;5.05;2.25;;;26.30;60.50;;;;;;5068797;28;20040;-51
2022/07/20 00:36:46;;;;;;;4.05;2.30;;;26.20;60.30;;;;;;5069838;28;20040;-49
2022/07/20 00:39:12;;;;;;;4.13;2.40;;;26.20;60.40;;;;;;5051755;28;20068;-48
2022/07/20 00:41:38;;;;;;;4.13;2.25;;;26.20;60.60;;;;;;5069940;28;20044;-48
2022/07/20 00:44:09;;;;;;;4.63;2.30;;;26.10;60.60;;;;;;5069394;28;20111;-54
2022/07/20 00:46:41;;;;;;;8.05;2.40;;;26.10;60.70;;;;;;5068810;28;20495;-52
2022/07/20 00:49:09;;;;;;;8.50;2.85;;;26.00;60.80;;;;;;5069744;28;20114;-54
2022/07/20 00:51:37;;;;;;;5.70;2.90;;;26.00;60.70;;;;;;5069446;28;20041;-51
2022/07/20 00:54:07;;;;;;;6.75;2.55;;;26.00;60.60;;;;;;5069491;28;20039;-50
2022/07/20 00:56:34;;;;;;;6.85;2.70;;;25.90;60.50;;;;;;5069984;28;20495;-50
2022/07/20 00:59:05;;;;;;;3.90;2.28;;;25.90;60.60;;;;;;5069496;28;20057;-50
2022/07/20 01:01:32;;;;;;;7.10;2.53;;;25.90;60.50;;;;;;5069816;28;20121;-52
2022/07/20 01:03:58;;;;;;;6.25;2.85;;;25.90;60.50;;;;;;5067600;28;20063;-54
2022/07/20 01:06:24;;;;;;;6.55;2.80;;;25.80;60.50;;;;;;5069901;28;20173;-52
2022/07/20 01:08:50;;;;;;;5.20;2.38;;;25.80;60.90;;;;;;5069677;28;20569;-50
2022/07/20 01:11:16;;;;;;;4.85;2.50;;;25.80;60.90;;;;;;5068152;28;20036;-51
2022/07/20 01:13:41;;;;;;;5.68;2.58;;;25.70;60.80;;;;;;5068220;28;20036;-55
2022/07/20 01:16:07;;;;;;;4.15;2.40;;;25.70;60.90;;;;;;5069543;28;20039;-52
2022/07/20 01:18:33;;;;;;;11.35;3.10;;;25.70;61.00;;;;;;5069469;28;20098;-49
2022/07/20 01:21:06;;;;;;;4.43;2.40;;;25.60;61.20;;;;;;5069786;28;20048;-53
2022/07/20 01:23:32;;;;;;;5.40;2.42;;;25.60;61.20;;;;;;5069073;28;20094;-50
2022/07/20 01:25:58;;;;;;;8.32;2.30;;;25.50;61.60;;;;;;5068197;28;20032;-52
2022/07/20 01:28:25;;;;;;;6.90;2.85;;;25.40;61.60;;;;;;5069440;28;20040;-51
2022/07/20 01:30:51;;;;;;;11.80;3.13;;;25.40;61.80;;;;;;5068871;28;20098;-52
2022/07/20 01:33:17;;;;;;;5.78;2.78;;;25.30;61.80;;;;;;5069467;28;20036;-51
2022/07/20 01:35:43;;;;;;;7.90;2.67;;;25.30;62.40;;;;;;5070202;28;20124;-51
2022/07/20 01:38:09;;;;;;;6.55;2.83;;;25.30;61.90;;;;;;5072583;28;20520;-50
2022/07/20 01:40:34;;;;;;;5.93;2.78;;;25.20;61.90;;;;;;5072814;28;20045;-51
2022/07/20 01:43:00;;;;;;;6.63;2.95;;;25.20;62.10;;;;;;5072991;28;20036;-53
2022/07/20 01:45:26;;;;;;;5.72;2.45;;;25.10;62.10;;;;;;5072573;28;20033;-50
2022/07/20 01:47:51;;;;;;;6.57;2.83;;;25.10;62.30;;;;;;5071440;28;20101;-51
2022/07/20 01:50:17;;;;;;;6.82;2.78;;;25.00;62.50;;;;;;5072866;28;20037;-50
2022/07/20 01:52:43;;;;;;;5.10;2.50;;;24.90;62.70;;;;;;5072692;28;20047;-49
2022/07/20 01:55:09;;;;;;;6.82;2.83;;;24.90;62.70;;;;;;5072841;28;20443;-51
2022/07/20 01:57:35;;;;;;;4.78;2.55;;;24.90;63.00;;;;;;5072570;28;20036;-51
2022/07/20 02:00:01;;;;;;;8.13;3.20;;;24.90;62.90;;;;;;5072436;28;20120;-51
2022/07/20 02:02:26;;;;;;;6.93;3.00;;;24.80;63.00;;;;;;5072364;28;20028;-49
2022/07/20 02:04:52;;;;;;;8.32;3.00;;;24.70;63.20;;;;;;5072498;28;20401;-50
2022/07/20 02:07:18;;;;;;;4.88;2.55;;;24.70;63.00;;;;;;5072589;28;20044;-48
2022/07/20 02:09:44;;;;;;;6.43;2.67;;;24.70;63.50;;;;;;5072408;28;20739;-54
2022/07/20 02:12:09;;;;;;;4.90;2.78;;;24.60;63.40;;;;;;5070590;28;20164;-54
2022/07/20 02:14:35;;;;;;;5.22;2.80;;;24.60;63.40;;;;;;5071966;28;20064;-52
2022/07/20 02:17:01;;;;;;;8.38;3.30;;;24.60;63.20;;;;;;5072338;28;20028;-53
2022/07/20 02:19:26;;;;;;;5.25;3.08;;;24.50;63.50;;;;;;5071767;28;20446;-51
2022/07/20 02:21:52;;;;;;;5.80;3.17;;;24.50;63.50;;;;;;5072162;28;20037;-54
2022/07/20 02:24:17;;;;;;;4.88;2.30;;;24.50;63.50;;;;;;5071863;28;20040;-52
2022/07/20 02:26:43;;;;;;;4.97;2.63;;;24.40;63.80;;;;;;5070968;28;20083;-50
2022/07/20 02:29:09;;;;;;;5.20;2.90;;;24.40;63.90;;;;;;5071997;28;20310;-50
2022/07/20 02:31:34;;;;;;;8.00;2.65;;;24.40;63.70;;;;;;5071644;28;20059;-52
2022/07/20 02:34:01;;;;;;;4.80;2.60;;;24.30;63.90;;;;;;5072053;28;20036;-51
2022/07/20 02:36:26;;;;;;;5.60;3.00;;;24.30;64.80;;;;;;5070171;28;20076;-51
2022/07/20 02:38:52;;;;;;;10.02;3.38;;;24.20;64.10;;;;;;5071646;28;20083;-50
2022/07/20 02:41:18;;;;;;;6.47;2.92;;;24.20;64.20;;;;;;5071870;28;20044;-53
2022/07/20 02:43:43;;;;;;;6.38;2.53;;;24.20;64.30;;;;;;5071583;28;20127;-53
2022/07/20 02:46:09;;;;;;;4.97;2.80;;;24.20;64.30;;;;;;5070992;28;20543;-52
2022/07/20 02:48:35;;;;;;;7.32;3.80;;;24.10;64.60;;;;;;5071235;28;20044;-52
2022/07/20 02:51:01;;;;;;;5.20;3.00;;;24.10;64.50;;;;;;5071656;28;20040;-51
2022/07/20 02:53:27;;;;;;;5.05;2.58;;;24.10;64.80;;;;;;5071007;28;20037;-50
2022/07/20 02:55:52;;;;;;;5.68;2.90;;;24.00;64.80;;;;;;5071399;28;20476;-52
2022/07/20 02:58:18;;;;;;;8.60;3.40;;;24.00;64.90;;;;;;5071142;28;20044;-52
2022/07/20 03:00:44;;;;;;;5.15;3.08;;;24.00;65.00;;;;;;5070989;28;20189;-47
2022/07/20 03:03:10;;;;;;;5.20;2.92;;;23.90;64.80;;;;;;5071234;28;20048;-50
2022/07/20 03:05:36;;;;;;;6.60;2.83;;;23.90;64.70;;;;;;5071384;28;20066;-52
2022/07/20 03:08:04;;;;;;;9.48;3.35;;;23.90;65.20;;;;;;5070983;28;20430;-48
2022/07/20 03:10:29;;;;;;;6.78;2.90;;;23.90;65.20;;;;;;5071212;28;20044;-49
2022/07/20 03:12:55;;;;;;;5.70;2.78;;;23.80;65.20;;;;;;5071173;28;20036;-48
2022/07/20 03:15:21;;;;;;;6.28;3.17;;;23.80;65.40;;;;;;5070867;28;20373;-53
2022/07/20 03:17:53;;;;;;;7.18;2.70;;;23.70;65.50;;;;;;5069624;28;20036;-51
2022/07/20 03:20:31;;;;;;;6.30;2.85;;;23.70;65.50;;;;;;5070924;28;20074;-51
2022/07/20 03:22:57;;;;;;;8.25;3.00;;;23.70;65.90;;;;;;5070995;28;20127;-51
2022/07/20 03:25:24;;;;;;;7.68;3.50;;;23.60;65.80;;;;;;5070873;28;20537;-50
2022/07/20 03:27:54;;;;;;;6.43;3.30;;;23.60;65.80;;;;;;5070883;28;20052;-49
2022/07/20 03:30:21;;;;;;;7.20;3.30;;;23.60;66.00;;;;;;5070330;28;20044;-52
2022/07/20 03:32:46;;;;;;;6.50;3.40;;;23.50;65.80;;;;;;5070640;28;20444;-52
2022/07/20 03:35:13;;;;;;;7.28;3.30;;;23.50;65.70;;;;;;5070749;28;20040;-50
2022/07/20 03:37:39;;;;;;;6.03;3.05;;;23.50;65.80;;;;;;5069610;28;20036;-49
2022/07/20 03:40:05;;;;;;;7.50;3.10;;;23.50;65.70;;;;;;5070538;28;20036;-51
2022/07/20 03:42:32;;;;;;;5.63;2.90;;;23.50;65.80;;;;;;5070746;28;20054;-50
2022/07/20 03:44:58;;;;;;;9.45;3.20;;;23.50;66.00;;;;;;5069644;28;20072;-50
2022/07/20 03:47:24;;;;;;;6.75;2.80;;;23.50;66.20;;;;;;5069272;28;20056;-49
2022/07/20 03:49:50;;;;;;;6.80;3.35;;;23.50;66.30;;;;;;5070523;28;20033;-53
2022/07/20 03:52:17;;;;;;;5.28;3.05;;;23.50;66.20;;;;;;5070166;28;20101;-51
2022/07/20 03:54:43;;;;;;;4.68;3.05;;;23.40;66.00;;;;;;5070348;28;20116;-52
2022/07/20 03:57:09;;;;;;;6.47;3.13;;;23.40;66.50;;;;;;5069282;28;20147;-50
2022/07/20 03:59:35;;;;;;;9.52;3.47;;;23.30;66.90;;;;;;5069039;28;20641;-49
2022/07/20 04:02:01;;;;;;;5.10;3.00;;;23.30;66.90;;;;;;5070598;28;20226;-50
2022/07/20 04:04:27;;;;;;;5.93;3.17;;;23.30;66.90;;;;;;5069904;28;20174;-53
2022/07/20 04:06:54;;;;;;;5.93;3.03;;;23.20;67.10;;;;;;5070076;28;20148;-50
2022/07/20 04:09:43;;;;;;;5.32;2.85;;;23.20;67.10;;;;;;5070143;28;20056;-50
2022/07/20 04:12:06;;;;;;;5.43;3.00;;;23.20;66.90;;;;;;5069921;28;20036;-53
2022/07/20 04:14:33;;;;;;;6.30;3.13;;;23.30;66.50;;;;;;5069009;28;20615;-50
2022/07/20 04:16:59;;;;;;;6.40;3.03;;;23.30;66.80;;;;;;5070208;28;20036;-50
2022/07/20 04:19:24;;;;;;;7.25;3.35;;;23.30;66.80;;;;;;5069722;28;20038;-52
2022/07/20 04:21:50;;;;;;;5.07;3.20;;;23.30;66.40;;;;;;5069914;28;20044;-51
2022/07/20 04:24:16;;;;;;;6.93;3.42;;;23.40;66.80;;;;;;5069803;28;20500;-47
2022/07/20 04:26:41;;;;;;;8.88;3.10;;;23.40;66.60;;;;;;5069889;28;20036;-51
2022/07/20 04:29:07;;;;;;;7.10;3.20;;;23.40;66.70;;;;;;5068695;28;20484;-51
2022/07/20 04:31:33;;;;;;;5.20;3.30;;;23.40;66.80;;;;;;5069792;28;20391;-52
2022/07/20 04:33:58;;;;;;;7.50;3.10;;;23.40;67.10;;;;;;5070027;28;20055;-54
2022/07/20 04:36:24;;;;;;;7.20;3.63;;;23.40;67.20;;;;;;5069984;28;20041;-48
2022/07/20 04:38:49;;;;;;;6.75;3.33;;;23.30;67.20;;;;;;5070056;28;20545;-49
2022/07/20 04:41:15;;;;;;;7.45;3.80;;;23.40;67.30;;;;;;5069554;28;20058;-52
2022/07/20 04:43:41;;;;;;;5.97;3.22;;;23.40;67.20;;;;;;5068949;28;20040;-52
2022/07/20 04:46:06;;;;;;;5.70;3.22;;;23.40;68.10;;;;;;5069456;28;20132;-51
2022/07/20 04:48:32;;;;;;;4.85;3.28;;;23.40;68.00;;;;;;5068255;28;20056;-53
2022/07/20 04:50:58;;;;;;;9.13;3.53;;;23.30;69.90;;;;;;5069625;28;20037;-51
2022/07/20 04:53:23;;;;;;;7.63;3.38;;;23.30;69.50;;;;;;5069817;28;20043;-51
2022/07/20 04:55:49;;;;;;;10.07;3.70;;;23.30;70.10;;;;;;5069795;28;20488;-54
2022/07/20 04:58:14;;;;;;;7.55;3.80;;;23.30;70.40;;;;;;5069393;28;20036;-52
2022/07/20 05:00:40;;;;;;;8.27;4.00;;;23.20;70.70;;;;;;5069440;28;20056;-50
2022/07/20 05:03:06;;;;;;;8.00;3.50;;;23.20;71.00;;;;;;5069608;28;20467;-49
2022/07/20 05:05:31;;;;;;;5.78;3.53;;;23.10;71.00;;;;;;5069829;28;20033;-52
2022/07/20 05:07:57;;;;;;;6.75;3.75;;;23.10;71.40;;;;;;5069862;28;20082;-50
2022/07/20 05:10:23;;;;;;;6.72;3.90;;;23.10;71.00;;;;;;5070080;28;20079;-48
2022/07/20 05:12:48;;;;;;;6.05;4.10;;;23.10;71.00;;;;;;5073195;28;20066;-50
2022/07/20 05:15:14;;;;;;;8.40;4.30;;;23.10;71.50;;;;;;5072716;28;20041;-53
2022/07/20 05:17:40;;;;;;;9.65;3.85;;;23.00;71.50;;;;;;5073473;28;20047;-52
2022/07/20 05:20:06;;;;;;;10.93;4.22;;;23.00;71.70;;;;;;5071895;28;20025;-49
2022/07/20 05:22:32;;;;;;;7.45;3.60;;;23.10;72.10;;;;;;5072310;28;20044;-51
2022/07/20 05:24:58;;;;;;;7.45;4.35;;;23.00;71.80;;;;;;5073181;28;20028;-52
2022/07/20 05:27:23;;;;;;;8.27;4.00;;;23.10;72.60;;;;;;5072983;28;20179;-51
2022/07/20 05:29:49;;;;;;;10.60;4.10;;;23.10;71.80;;;;;;5071515;28;20056;-49
2022/07/20 05:32:15;;;;;;;8.90;4.88;;;23.10;72.00;;;;;;5072668;28;20068;-50
2022/07/20 05:34:41;;;;;;;7.65;4.72;;;23.20;72.30;;;;;;5072846;28;20130;-51
2022/07/20 05:37:07;;;;;;;8.60;4.22;;;23.20;72.10;;;;;;5073072;28;20072;-50
2022/07/20 05:39:32;;;;;;;9.95;4.60;;;23.30;73.70;;;;;;5072881;28;20215;-54
2022/07/20 05:41:58;;;;;;;13.02;4.78;;;23.30;73.60;;;;;;5072715;28;20110;-48
2022/07/20 05:44:24;;;;;;;7.68;4.40;;;23.30;73.30;;;;;;5072353;28;20089;-48
2022/07/20 05:46:49;;;;;;;12.55;5.15;;;23.30;75.00;;;;;;5072765;28;20448;-51
2022/07/20 05:49:15;;;;;;;9.80;4.35;;;23.30;74.60;;;;;;5072892;28;20049;-52
2022/07/20 05:51:41;;;;;;;12.98;4.75;;;23.40;75.70;;;;;;5072736;28;20041;-52
2022/07/20 05:54:06;;;;;;;8.85;4.65;;;23.50;76.60;;;;;;5072926;28;20064;-51
2022/07/20 05:56:32;;;;;;;11.80;4.60;;;23.50;77.20;;;;;;5072685;28;20039;-50
2022/07/20 05:58:57;;;;;;;11.75;4.28;;;23.60;77.10;;;;;;5072462;28;20087;-49
2022/07/20 06:01:23;;;;;;;10.80;4.40;;;23.70;76.90;;;;;;5072531;28;20048;-53
2022/07/20 06:03:49;;;;;;;8.40;4.05;;;23.80;75.60;;;;;;5072181;28;20049;-50
2022/07/20 06:06:15;;;;;;;18.45;4.88;;;23.90;75.80;;;;;;5072639;28;20036;-50
2022/07/20 06:08:41;;;;;;;8.70;4.53;;;23.90;76.70;;;;;;5072435;28;20067;-51
2022/07/20 06:11:08;;;;;;;9.80;5.00;;;24.00;75.60;;;;;;5071921;28;20124;-49
2022/07/20 06:13:34;;;;;;;9.30;4.55;;;24.00;76.00;;;;;;5072499;28;20040;-52
2022/07/20 06:16:00;;;;;;;12.50;4.90;;;24.10;77.70;;;;;;5071867;28;20052;-51
2022/07/20 06:18:25;;;;;;;20.30;5.80;;;24.10;76.00;;;;;;5072301;28;20044;-51
2022/07/20 06:20:51;;;;;;;8.55;4.95;;;24.20;76.40;;;;;;5071567;28;20123;-54
2022/07/20 06:23:17;;;;;;;9.30;5.40;;;24.20;76.40;;;;;;5071753;28;20040;-50
2022/07/20 06:25:42;;;;;;;8.48;4.90;;;24.30;76.50;;;;;;5071541;28;20480;-51
2022/07/20 06:28:08;;;;;;;15.10;6.00;;;24.40;77.40;;;;;;5071894;28;20051;-53
2022/07/20 06:30:34;;;;;;;11.55;5.95;;;24.40;78.30;;;;;;5052645;28;20048;-50
2022/07/20 06:33:00;;;;;;;10.95;5.72;;;24.50;79.20;;;;;;5071788;28;20043;-52
2022/07/20 06:35:25;;;;;;;12.82;6.35;;;24.50;77.70;;;;;;5071938;28;20043;-53
2022/07/20 06:37:51;;;;;;;10.35;7.15;;;24.60;78.00;;;;;;5072076;28;20042;-49
2022/07/20 06:40:17;;;;;;;15.40;6.72;;;24.60;79.60;;;;;;5071899;28;20037;-52
2022/07/20 06:42:42;;;;;;;11.88;6.70;;;24.70;78.60;;;;;;5071728;28;20032;-53
2022/07/20 06:45:08;;;;;;;10.75;7.75;;;24.70;79.00;;;;;;5071286;28;20038;-51
2022/07/20 06:47:34;;;;;;;12.77;7.63;;;24.70;79.40;;;;;;5071481;28;20120;-53
2022/07/20 06:50:00;;;;;;;12.40;7.97;;;24.80;79.00;;;;;;5071745;28;20119;-50
2022/07/20 06:52:25;;;;;;;11.88;7.88;;;24.80;79.40;;;;;;5071426;28;20049;-49
2022/07/20 06:54:51;;;;;;;13.48;8.20;;;24.90;79.70;;;;;;5071626;28;20380;-54
2022/07/20 06:57:17;;;;;;;10.57;8.10;;;24.90;80.20;;;;;;5071591;28;20079;-49
2022/07/20 06:59:42;;;;;;;13.07;9.05;;;24.90;80.20;;;;;;5071060;28;20564;-51
2022/07/20 07:02:09;;;;;;;18.33;8.98;;;25.00;80.80;;;;;;5071218;28;20097;-51
2022/07/20 07:04:34;;;;;;;16.23;9.90;;;25.00;80.60;;;;;;5071293;28;20590;-49
2022/07/20 07:07:02;;;;;;;16.75;10.25;;;25.00;81.80;;;;;;5071222;28;20044;-52
2022/07/20 07:09:28;;;;;;;18.23;11.07;;;25.00;83.30;;;;;;5071128;28;20044;-47
2022/07/20 07:11:54;;;;;;;17.58;10.52;;;25.10;84.20;;;;;;5070997;28;20116;-53
2022/07/20 07:14:20;;;;;;;18.33;13.95;;;25.20;85.90;;;;;;5069883;28;20535;-51
2022/07/20 07:16:45;;;;;;;23.88;15.02;;;25.10;87.10;;;;;;5069309;28;20047;-51
2022/07/20 07:19:11;;;;;;;20.00;14.40;;;25.00;88.20;;;;;;5069509;28;20064;-51
2022/07/20 07:21:37;;;;;;;22.13;15.80;;;25.10;89.10;;;;;;5070728;28;20049;-54
2022/07/20 07:24:03;;;;;;;22.05;14.30;;;25.20;89.20;;;;;;5071085;28;20093;-52
2022/07/20 07:26:28;;;;;;;22.38;13.85;;;25.20;89.80;;;;;;5070795;28;20044;-53
2022/07/20 07:28:54;;;;;;;24.33;15.45;;;25.20;89.30;;;;;;5070957;28;20047;-51
2022/07/20 07:31:20;;;;;;;22.42;14.25;;;25.20;90.30;;;;;;5070514;28;20040;-49
2022/07/20 07:33:46;;;;;;;20.75;15.00;;;25.30;90.30;;;;;;5070512;28;20036;-51
2022/07/20 07:36:12;;;;;;;32.35;15.88;;;25.30;90.80;;;;;;5069126;28;20040;-53
2022/07/20 07:38:38;;;;;;;22.50;14.77;;;25.30;91.30;;;;;;5069648;28;20032;-49
2022/07/20 07:41:04;;;;;;;22.25;15.30;;;25.30;91.30;;;;;;5070225;28;20063;-55
2022/07/20 07:43:30;;;;;;;23.67;15.80;;;25.30;91.50;;;;;;5070444;28;20131;-54
2022/07/20 07:45:55;;;;;;;21.50;16.30;;;25.40;92.20;;;;;;5068764;28;20029;-54
2022/07/20 07:48:21;;;;;;;25.95;16.88;;;25.50;92.10;;;;;;5070714;28;20028;-52
2022/07/20 07:50:47;;;;;;;26.25;17.30;;;25.50;92.10;;;;;;5069911;28;20048;-53
2022/07/20 07:53:13;;;;;;;27.85;17.38;;;25.60;92.20;;;;;;5070385;28;20040;-50
2022/07/20 07:55:40;;;;;;;28.42;18.80;;;25.70;92.70;;;;;;5070390;28;20032;-53
2022/07/20 07:58:07;;;;;;;27.75;18.73;;;25.70;93.20;;;;;;5070313;28;20025;-49
2022/07/20 08:00:33;;;;;;;29.52;18.65;;;25.70;93.20;;;;;;5068745;28;20060;-52
2022/07/20 08:03:00;;;;;;;33.90;20.00;;;25.80;93.00;;;;;;5070373;28;20075;-51
2022/07/20 08:05:26;;;;;;;28.23;19.88;;;25.90;93.50;;;;;;5070212;28;20565;-52
2022/07/20 08:07:51;;;;;;;27.00;19.60;;;26.00;93.70;;;;;;5068875;28;20036;-51
2022/07/20 08:10:17;;;;;;;28.88;19.25;;;26.10;93.60;;;;;;5070116;28;20050;-51
2022/07/20 08:12:43;;;;;;;27.85;19.92;;;26.10;93.00;;;;;;5070308;28;20047;-51
2022/07/20 08:15:10;;;;;;;31.67;20.90;;;26.20;92.60;;;;;;5068538;28;20380;-52
2022/07/20 08:17:36;;;;;;;33.47;21.20;;;26.30;92.00;;;;;;5070191;28;20037;-50
2022/07/20 08:20:05;;;;;;;28.40;20.67;;;26.30;92.00;;;;;;5069997;28;20047;-51
2022/07/20 08:22:31;;;;;;;33.65;20.30;;;26.40;92.40;;;;;;5069937;28;20044;-51
2022/07/20 08:24:56;;;;;;;32.10;20.85;;;26.40;92.60;;;;;;5068493;28;20438;-51
2022/07/20 08:27:22;;;;;;;27.73;21.15;;;26.50;92.60;;;;;;5070162;28;20054;-51
2022/07/20 08:29:48;;;;;;;27.95;22.13;;;26.50;91.80;;;;;;5070144;28;20369;-52
2022/07/20 08:32:13;;;;;;;30.67;21.60;;;26.60;91.70;;;;;;5068770;28;20033;-53
2022/07/20 08:34:39;;;;;;;28.73;20.20;;;26.60;91.40;;;;;;5069800;28;20033;-48
2022/07/20 08:37:05;;;;;;;31.42;22.00;;;26.70;91.40;;;;;;5069774;28;20083;-53
2022/07/20 08:39:31;;;;;;;28.67;20.98;;;26.80;92.00;;;;;;5070064;28;20072;-51
2022/07/20 08:41:56;;;;;;;29.67;20.50;;;26.70;90.50;;;;;;5069646;28;20056;-51
2022/07/20 08:44:22;;;;;;;28.90;20.95;;;26.70;90.30;;;;;;5070297;28;20116;-52
2022/07/20 08:46:49;;;;;;;28.17;20.75;;;26.70;89.50;;;;;;5073495;28;20037;-51
2022/07/20 08:49:15;;;;;;;25.80;20.20;;;26.60;88.80;;;;;;5073768;28;20123;-52
2022/07/20 08:51:42;;;;;;;28.42;18.58;;;26.70;89.50;;;;;;5073570;28;20040;-50
2022/07/20 08:54:08;;;;;;;26.70;18.70;;;26.80;90.00;;;;;;5073822;28;20095;-50
2022/07/20 08:56:34;;;;;;;25.02;18.42;;;26.80;89.90;;;;;;5073630;28;20070;-52
2022/07/20 08:59:00;;;;;;;27.98;17.33;;;26.80;89.30;;;;;;5072192;28;20466;-51
2022/07/20 09:01:26;;;;;;;25.45;17.85;;;26.70;88.70;;;;;;5073739;28;20040;-53
2022/07/20 09:04:11;;;;;;;24.13;17.52;;;26.90;89.80;;;;;;5073614;28;20071;-51
2022/07/20 09:06:47;;;;;;;26.02;16.73;;;26.90;89.30;;;;;;5071892;28;20041;-53
2022/07/20 09:09:14;;;;;;;27.35;16.60;;;26.90;90.00;;;;;;5073598;28;20051;-50
2022/07/20 09:11:39;;;;;;;24.70;16.05;;;27.00;89.70;;;;;;5073682;28;20044;-49
2022/07/20 09:14:05;;;;;;;21.88;15.07;;;27.10;89.30;;;;;;5073534;28;20028;-50
2022/07/20 09:16:43;;;;;;;20.50;15.20;;;27.10;89.20;;;;;;5072893;28;20048;-50
2022/07/20 09:19:09;;;;;;;20.50;14.43;;;27.20;90.00;;;;;;5072236;28;20044;-51
2022/07/20 09:21:35;;;;;;;17.20;12.13;;;27.00;89.40;;;;;;5070873;28;20183;-51
2022/07/20 09:24:04;;;;;;;20.23;11.35;;;27.10;85.40;;;;;;5072956;28;20178;-53
2022/07/20 09:26:30;;;;;;;17.73;11.10;;;27.30;84.40;;;;;;5073105;28;20032;-51
2022/07/20 09:28:57;;;;;;;21.45;11.35;;;27.40;84.70;;;;;;5073066;28;20537;-51
2022/07/20 09:31:25;;;;;;;15.77;9.93;;;27.30;84.20;;;;;;5072818;28;20052;-50
2022/07/20 09:33:59;;;;;;;21.08;9.23;;;27.50;84.10;;;;;;5071650;28;20398;-51
2022/07/20 09:36:28;;;;;;;17.80;9.02;;;27.60;81.50;;;;;;5073120;28;20115;-54
2022/07/20 09:39:04;;;;;;;13.75;9.48;;;27.50;81.40;;;;;;5072506;28;20037;-48
2022/07/20 09:41:32;;;;;;;14.88;9.13;;;27.80;82.60;;;;;;5073179;28;20037;-54
2022/07/20 09:43:59;;;;;;;14.95;9.38;;;27.80;81.40;;;;;;5072302;28;20083;-49
2022/07/20 09:46:36;;;;;;;15.73;9.45;;;27.90;81.70;;;;;;5072390;28;20043;-50
2022/07/20 09:49:07;;;;;;;14.88;9.15;;;27.90;82.00;;;;;;5072579;28;20175;-53
2022/07/20 09:51:35;;;;;;;18.73;9.35;;;28.00;82.30;;;;;;5072567;28;20051;-51
2022/07/20 09:54:04;;;;;;;14.20;10.05;;;28.00;81.80;;;;;;5072264;28;20472;-50
2022/07/20 09:56:30;;;;;;;17.17;10.00;;;28.00;81.60;;;;;;5071490;28;20174;-53
2022/07/20 09:58:58;;;;;;;15.35;9.00;;;28.10;80.70;;;;;;5072148;28;20061;-48
2022/07/20 10:01:26;;;;;;;15.15;9.20;;;28.20;81.10;;;;;;5071544;28;20040;-52
2022/07/20 10:03:54;;;;;;;14.88;9.43;;;28.00;80.40;;;;;;5072515;28;20090;-52
2022/07/20 10:06:22;;;;;;;16.60;8.95;;;28.30;81.00;;;;;;5072411;28;20076;-52
2022/07/20 10:08:49;;;;;;;13.65;9.20;;;28.10;79.70;;;;;;5070861;28;20121;-52
2022/07/20 10:11:16;;;;;;;14.00;9.10;;;28.10;80.20;;;;;;5072323;28;20387;-55
2022/07/20 10:13:43;;;;;;;14.68;8.45;;;28.20;80.40;;;;;;5072164;28;20048;-50
2022/07/20 10:16:21;;;;;;;14.05;9.32;;;28.60;81.00;;;;;;5071871;28;20543;-51
2022/07/20 10:18:47;;;;;;;13.63;8.88;;;28.70;81.20;;;;;;5071449;28;20056;-53
2022/07/20 10:21:32;;;;;;;15.07;9.10;;;28.70;80.70;;;;;;5072011;28;20078;-53
2022/07/20 10:24:29;;;;;;;18.15;9.57;;;28.70;79.90;;;;;;5072265;28;20480;-53
2022/07/20 10:27:16;;;;;;;13.88;9.35;;;28.70;80.20;;;;;;5069386;28;20049;-55
2022/07/20 10:29:43;;;;;;;14.60;8.60;;;28.50;77.50;;;;;;5071605;28;20149;-51
2022/07/20 10:32:20;;;;;;;15.68;8.90;;;28.60;78.60;;;;;;5071880;28;20054;-54
2022/07/20 10:34:54;;;;;;;12.27;8.48;;;28.70;78.30;;;;;;5071696;28;20388;-52
2022/07/20 10:37:30;;;;;;;13.05;8.25;;;28.70;78.80;;;;;;5071789;28;20047;-52
2022/07/20 10:40:05;;;;;;;12.13;8.27;;;28.60;78.90;;;;;;5071872;28;20131;-50
2022/07/20 10:42:37;;;;;;;13.35;8.35;;;28.60;79.40;;;;;;5071723;28;20040;-50
2022/07/20 10:45:23;;;;;;;15.90;8.10;;;28.60;79.00;;;;;;5071087;28;20317;-53
2022/07/20 10:47:51;;;;;;;13.68;7.88;;;28.90;79.80;;;;;;5071121;28;20032;-51
2022/07/20 10:50:33;;;;;;;16.67;8.05;;;28.80;79.80;;;;;;5071749;28;20024;-50
2022/07/20 10:53:11;;;;;;;13.05;7.78;;;28.80;79.30;;;;;;5071645;28;20028;-50
2022/07/20 10:55:36;;;;;;;20.42;8.57;;;29.10;79.40;;;;;;5071588;28;20471;-49
2022/07/20 10:58:14;;;;;;;17.70;7.30;;;28.90;78.90;;;;;;5071122;28;20051;-53
2022/07/20 11:00:39;;;;;;;15.30;8.25;;;29.00;76.90;;;;;;5071413;28;20197;-53
2022/07/20 11:03:25;;;;;;;14.73;7.75;;;29.10;78.00;;;;;;5069864;28;20068;-51
2022/07/20 11:06:15;;;;;;;11.25;7.75;;;28.90;75.50;;;;;;5071381;28;20502;-55
2022/07/20 11:08:51;;;;;;;12.50;7.93;;;29.00;76.20;;;;;;5070952;28;20495;-52
2022/07/20 11:11:19;;;;;;;12.13;7.95;;;29.30;76.40;;;;;;5071217;28;20124;-53
2022/07/20 11:13:46;;;;;;;12.98;7.90;;;29.40;76.70;;;;;;5070992;28;20072;-52
2022/07/20 11:16:12;;;;;;;12.38;7.30;;;29.40;76.60;;;;;;5069174;28;20047;-54
2022/07/20 11:18:38;;;;;;;11.90;7.63;;;29.40;75.80;;;;;;5071260;28;20385;-54
2022/07/20 11:21:09;;;;;;;11.43;7.22;;;29.60;77.60;;;;;;5070952;28;20115;-52
2022/07/20 11:23:46;;;;;;;11.68;8.10;;;29.50;74.40;;;;;;5070712;28;20101;-51
2022/07/20 11:26:14;;;;;;;14.70;8.77;;;29.60;76.30;;;;;;5070630;28;20036;-54
2022/07/20 11:28:46;;;;;;;10.90;7.82;;;29.70;76.90;;;;;;5070692;28;20040;-51
2022/07/20 11:31:12;;;;;;;10.25;7.40;;;29.70;74.70;;;;;;5070594;28;20052;-51
2022/07/20 11:33:41;;;;;;;14.43;8.25;;;29.90;76.90;;;;;;5070602;28;20045;-52
2022/07/20 11:36:16;;;;;;;12.13;8.98;;;30.00;75.00;;;;;;5070850;28;20433;-51
2022/07/20 11:38:45;;;;;;;12.77;8.90;;;29.60;73.50;;;;;;5070711;28;20094;-53
2022/07/20 11:41:14;;;;;;;14.50;8.32;;;29.90;74.60;;;;;;5070580;28;20090;-53
2022/07/20 11:43:40;;;;;;;11.98;7.78;;;30.00;73.90;;;;;;5070782;28;20150;-52
2022/07/20 11:46:10;;;;;;;13.73;7.82;;;29.80;74.20;;;;;;5069823;28;20028;-53
2022/07/20 11:48:35;;;;;;;14.15;7.85;;;29.90;74.60;;;;;;5070663;28;20384;-53
2022/07/20 11:51:02;;;;;;;10.88;7.22;;;30.00;73.60;;;;;;5070465;28;20033;-52
2022/07/20 11:53:32;;;;;;;8.30;6.28;;;30.00;74.20;;;;;;5070117;28;20119;-53
2022/07/20 11:56:01;;;;;;;10.20;6.60;;;30.00;73.70;;;;;;5070112;28;20032;-51
2022/07/20 11:58:28;;;;;;;9.48;6.57;;;29.90;72.70;;;;;;5070320;28;20040;-49
2022/07/20 12:00:55;;;;;;;11.38;6.57;;;29.80;73.20;;;;;;5068621;28;20056;-50
2022/07/20 12:03:28;;;;;;;11.38;6.40;;;29.80;73.70;;;;;;5070218;28;20056;-51
2022/07/20 12:05:55;;;;;;;10.75;6.60;;;30.40;73.90;;;;;;5070577;28;20140;-53
2022/07/20 12:08:22;;;;;;;9.63;6.45;;;30.60;74.40;;;;;;5070016;28;20084;-51
2022/07/20 12:10:48;;;;;;;9.13;6.40;;;30.50;74.30;;;;;;5070219;28;20037;-56
2022/07/20 12:13:14;;;;;;;9.48;6.05;;;30.50;73.40;;;;;;5070248;28;20047;-52
2022/07/20 12:16:01;;;;;;;8.35;5.70;;;30.70;74.50;;;;;;5069165;28;20372;-53
2022/07/20 12:18:38;;;;;;;11.00;5.93;;;30.60;72.80;;;;;;5070360;28;20115;-54
2022/07/20 12:21:06;;;;;;;11.73;5.88;;;30.60;72.50;;;;;;5069426;28;20668;-54
2022/07/20 12:23:33;;;;;;;8.02;5.18;;;30.90;73.90;;;;;;5069985;28;20044;-55
2022/07/20 12:26:00;;;;;;;9.93;5.10;;;31.20;73.20;;;;;;5069864;28;20044;-51
2022/07/20 12:28:30;;;;;;;9.57;5.30;;;31.30;73.70;;;;;;5069894;28;20123;-51
2022/07/20 12:31:13;;;;;;;13.30;5.13;;;31.50;72.30;;;;;;5070061;28;20045;-52
2022/07/20 12:33:58;;;;;;;7.63;4.53;;;31.10;73.00;;;;;;5069792;28;20045;-56
2022/07/20 12:36:51;;;;;;;8.38;4.43;;;31.30;72.30;;;;;;5068088;28;20033;-52
2022/07/20 12:39:40;;;;;;;7.72;4.28;;;31.50;69.70;;;;;;5069602;28;20082;-51
2022/07/20 12:42:13;;;;;;;8.85;4.30;;;31.80;71.60;;;;;;5070434;28;20073;-53
2022/07/20 12:44:39;;;;;;;6.32;3.72;;;31.50;69.70;;;;;;5069649;28;20045;-51